• Join FlightAware (Why Join?)
  • Login
  • US Flag GB Flag 
04:33 EDT


 

Airport Tracker/Info


-or-


 

Live Flight TrackerFlight Track Log ✈ N465TP ✈ 02-Sep-2013 ✈ KSFO - KCOD

Flight Track Log - Related Links

Times and Time Zones

All times are in EDT time to prevent confusion due to time zone crossing. See the N465TP flight status page for this flight to view local times or setup timezone preferences in your user account.

Time Position Orientation Groundspeed Altitude Reporting Facility
EDT Latitude Longitude Course Direction KTS MPH feet Rate Location/Type
14:28 37.6333 -122.3500 50° Northeast 130 150 1,100  Level Northern Cal TRACON
14:29 37.6667 -122.3167 38° Northeast 124 143 2,700 1,380 Climbing Northern Cal TRACON
14:30 37.6833 -122.2833 58° Northeast 145 167 3,900 1,200 Climbing Northern Cal TRACON
14:31 37.7167 -122.2500 38° Northeast 154 177 5,000 1,200 Climbing Northern Cal TRACON
14:32 37.7333 -122.2000 67° East 162 186 6,200 1,200 Climbing Northern Cal TRACON
14:33 37.7667 -122.1500 50° Northeast 171 197 7,400 1,200 Climbing Northern Cal TRACON
14:34 37.6199 -122.3618 50° Northeast  Level FlightAware Approximate
14:34 37.8000 -122.1000 50° Northeast 180 207 8,700  Level Northern Cal TRACON
14:35 37.8167 -122.0500 67° East 184 212 9,700 1,020 Climbing Northern Cal TRACON
14:36 37.8500 -122.0000 50° Northeast 188 216 10,700 1,080 Climbing Northern Cal TRACON
14:37 37.8833 -121.9500 50° Northeast 194 223 11,900 1,080 Climbing Northern Cal TRACON
14:38 37.9075 -121.9042 56° Northeast 192 221 12,600 1,020 Climbing Oakland Center
14:39 37.9381 -121.8467 56° Northeast 196 226 13,700 1,020 Climbing Oakland Center
14:40 37.9750 -121.7944 48° Northeast 202 232 14,800 1,080 Climbing Oakland Center
14:41 38.0333 -121.7753 15° North 215 247 16,000 1,020 Climbing Oakland Center
14:42 38.0897 -121.7561 15° North 212 244 17,000 960 Climbing Oakland Center
14:43 38.1506 -121.7381 13° North 221 254 18,000 960 Climbing Oakland Center
14:44 38.2131 -121.7183 14° North 229 264 19,100 1,080 Climbing Oakland Center
14:45 38.2886 -121.6911 16° North 237 273 20,300 1,020 Climbing Oakland Center
14:46 38.3522 -121.6694 15° North 237 273 21,200 840 Climbing Oakland Center
14:47 38.4164 -121.6422 18° North 242 278 22,100 900 Climbing Oakland Center
14:48 38.4908 -121.6142 16° North 251 289 23,100 960 Climbing Oakland Center
14:49 38.5611 -121.5903 15° North 257 296 24,100 780 Climbing Oakland Center
14:50 38.6317 -121.5636 16° North 261 300 24,800 360 Climbing Oakland Center
14:51 38.7019 -121.5208 25° Northeast 291 335 24,900 240 Climbing Oakland Center
14:52 38.7397 -121.4275 63° Northeast 293 337 25,300 720 Climbing Oakland Center
14:53 38.7756 -121.3439 61° Northeast 268 308 26,500 720 Climbing Oakland Center
14:54 38.8117 -121.2606 61° Northeast 266 306 26,900 180 Climbing Oakland Center
14:55 38.8489 -121.1711 62° Northeast 280 322 26,900  Level Oakland Center
14:56 38.8900 -121.0803 60° Northeast 291 335 26,900  Level Oakland Center
14:57 38.9297 -120.9872 61° Northeast 297 342 26,900  Level Oakland Center
14:59 38.9761 -120.8772 61° Northeast 294 338 26,900  Level Oakland Center
15:00 39.0147 -120.7864 61° Northeast 291 335 26,900  Level Oakland Center
15:01 39.0533 -120.6967 61° Northeast 288 331 26,900  Level Oakland Center
15:02 39.0911 -120.6067 62° Northeast 287 330 26,900  Level Oakland Center
15:03 39.1286 -120.5172 62° Northeast 286 329 26,900  Level Oakland Center
15:04 39.1672 -120.4269 61° Northeast 287 330 26,900  Level Oakland Center
15:05 39.2056 -120.3372 61° Northeast 285 328 26,900  Level Oakland Center
15:06 39.2506 -120.2297 62° Northeast 283 326 26,900  Level Oakland Center
15:07 39.2892 -120.1400 61° Northeast 286 329 26,900  Level Oakland Center
15:08 39.3294 -120.0450 61° Northeast 291 335 26,900  Level Oakland Center
15:09 39.3664 -119.9544 62° Northeast 286 329 26,900  Level Oakland Center
15:10 39.4050 -119.8639 61° Northeast 288 331 26,900  Level Oakland Center
15:11 39.4428 -119.7747 61° Northeast 283 326 26,900  Level Oakland Center
15:12 39.4786 -119.6844 63° Northeast 282 325 26,900  Level Oakland Center
15:13 39.5167 -119.5969 61° Northeast 279 321 26,900  Level Oakland Center
15:14 39.5600 -119.4892 62° Northeast 278 320 26,900  Level Oakland Center
15:15 39.5964 -119.3992 62° Northeast 282 325 26,900  Level Oakland Center
15:16 39.6325 -119.3119 62° Northeast 276 318 26,900  Level Oakland Center
15:17 39.6686 -119.2228 62° Northeast 277 319 26,900  Level Oakland Center
15:18 39.7053 -119.1325 62° Northeast 279 321 27,000  Climbing Oakland Center
15:19 39.7419 -119.0422 62° Northeast 280 322 26,900 -60 Descending Oakland Center
15:20 39.7792 -118.9514 62° Northeast 282 325 26,900  Level Oakland Center
15:21 39.8153 -118.8600 63° Northeast 284 327 27,000  Climbing Oakland Center
15:22 39.8583 -118.7503 63° Northeast 282 325 27,000 -60 Level Oakland Center
15:23 39.8950 -118.6594 62° Northeast 283 326 26,900 -60 Descending Oakland Center
15:24 39.9317 -118.5683 62° Northeast 283 326 26,900  Level Oakland Center
15:25 39.9681 -118.4750 63° Northeast 286 329 27,000  Climbing Oakland Center
15:26 40.0056 -118.3811 62° Northeast 290 334 26,900 -60 Descending Oakland Center
15:27 40.0428 -118.2875 63° Northeast 290 334 26,900  Level Oakland Center
15:28 40.0786 -118.1931 64° Northeast 291 335 26,900  Level Oakland Center
15:29 40.1150 -118.1008 63° Northeast 286 329 27,000  Climbing Oakland Center
15:30 40.1589 -117.9892 63° Northeast 287 330 26,900 -60 Descending Oakland Center
15:31 40.1953 -117.8967 63° Northeast 286 329 26,900  Level Oakland Center
15:32 40.2253 -117.8203 63° Northeast 283 326 26,900  Level Salt Lake Center
15:33 40.2592 -117.7336 63° Northeast 280 322 26,900  Level Salt Lake Center
15:34 40.2983 -117.6322 63° Northeast 280 322 26,900  Level Salt Lake Center
15:35 40.3325 -117.5439 63° Northeast 282 325 26,900  Level Salt Lake Center
15:36 40.3722 -117.4411 63° Northeast 283 326 26,900  Level Salt Lake Center
15:38 40.4064 -117.3536 63° Northeast 283 326 26,900  Level Salt Lake Center
15:39 40.4467 -117.2506 63° Northeast 282 325 26,900  Level Salt Lake Center
15:40 40.4822 -117.1628 62° Northeast 283 326 26,900  Level Salt Lake Center
15:41 40.5169 -117.0753 62° Northeast 282 325 27,000  Climbing Salt Lake Center
15:42 40.5578 -116.9725 62° Northeast 281 323 26,900 -60 Descending Salt Lake Center
15:43 40.5919 -116.8836 63° Northeast 282 325 26,900  Level Salt Lake Center
15:44 40.6319 -116.7794 63° Northeast 284 327 26,900  Level Salt Lake Center
15:45 40.6656 -116.6919 63° Northeast 280 322 26,900  Level Salt Lake Center
15:46 40.7003 -116.6028 63° Northeast 283 326 26,900  Level Salt Lake Center
15:47 40.7408 -116.5000 62° Northeast 283 326 26,900  Level Salt Lake Center
15:48 40.7747 -116.4131 63° Northeast 279 321 26,900  Level Salt Lake Center
15:49 40.8142 -116.3103 63° Northeast 279 321 26,900  Level Salt Lake Center
15:50 40.8478 -116.2225 63° Northeast 280 322 27,000  Climbing Salt Lake Center
15:51 40.8869 -116.1189 63° Northeast 281 323 26,900 -60 Descending Salt Lake Center
15:52 40.9203 -116.0297 64° Northeast 282 325 26,900  Level Salt Lake Center
15:53 40.9600 -115.9281 63° Northeast 279 321 27,000  Climbing Salt Lake Center
15:54 40.9925 -115.8397 64° Northeast 279 321 27,000  Level Salt Lake Center
15:55 41.0314 -115.7375 63° Northeast 279 321 27,000 -60 Level Salt Lake Center
15:56 41.0639 -115.6494 64° Northeast 278 320 26,900  Descending Salt Lake Center
15:57 41.0978 -115.5611 63° Northeast 280 322 27,000  Climbing Salt Lake Center
15:58 41.1358 -115.4575 64° Northeast 279 321 26,900  Descending Salt Lake Center
15:59 41.1675 -115.3694 64° Northeast 278 320 27,000  Climbing Salt Lake Center
16:00 41.2075 -115.2656 63° Northeast 281 323 26,900 -60 Descending Salt Lake Center
16:01 41.2394 -115.1783 64° Northeast 278 320 26,900  Level Salt Lake Center
16:02 41.2767 -115.0714 65° Northeast 283 326 26,900  Level Salt Lake Center
16:03 41.3114 -114.9833 62° Northeast 282 325 26,900  Level Salt Lake Center
16:04 41.3503 -114.8789 64° Northeast 282 325 26,900  Level Salt Lake Center
16:05 41.3797 -114.7947 65° Northeast 283 326 27,000  Climbing Salt Lake Center
16:06 41.4144 -114.7011 64° Northeast 282 325 27,000  Level Salt Lake Center
16:07 41.4550 -114.5881 64° Northeast 282 325 27,000 -60 Level Salt Lake Center
16:08 41.4872 -114.4922 66° East 283 326 26,900  Descending Salt Lake Center
16:10 41.5225 -114.3997 63° Northeast 281 323 27,000  Climbing Salt Lake Center
16:11 41.5564 -114.3053 64° Northeast 282 325 27,000 -60 Level Salt Lake Center
16:12 41.5906 -114.2114 64° Northeast 282 325 26,900 -60 Descending Salt Lake Center
16:13 41.6217 -114.1181 66° East 277 319 26,900  Level Salt Lake Center
16:14 41.6633 -114.0061 63° Northeast 280 322 27,000  Climbing Salt Lake Center
16:15 41.6944 -113.9128 66° East 277 319 26,900  Descending Salt Lake Center
16:16 41.7278 -113.8181 65° Northeast 279 321 27,000  Climbing Salt Lake Center
16:17 41.7614 -113.7233 65° Northeast 281 323 27,000 -60 Level Salt Lake Center
16:18 41.7939 -113.6306 65° Northeast 276 318 26,900  Descending Salt Lake Center
16:19 41.8278 -113.5369 64° Northeast 278 320 27,000  Climbing Salt Lake Center
16:20 41.8608 -113.4411 65° Northeast 282 325 27,000  Level Salt Lake Center
16:21 41.9000 -113.3269 65° Northeast 281 323 27,000 -60 Level Salt Lake Center
16:22 41.9328 -113.2328 65° Northeast 281 323 26,900  Descending Salt Lake Center
16:23 41.9653 -113.1381 65° Northeast 279 321 27,000  Climbing Salt Lake Center
16:24 41.9972 -113.0439 65° Northeast 279 321 27,000  Level Salt Lake Center
16:25 42.0300 -112.9511 65° Northeast 276 318 27,000  Level Salt Lake Center
16:26 42.0614 -112.8569 66° East 276 318 27,000  Level Salt Lake Center
16:27 42.0992 -112.7456 65° Northeast 273 314 27,000  Level Salt Lake Center
16:28 42.1303 -112.6519 66° East 273 314 27,000  Level Salt Lake Center
16:29 42.1614 -112.5597 66° East 272 313 27,000  Level Salt Lake Center
16:30 42.1942 -112.4650 65° Northeast 278 320 27,000  Level Salt Lake Center
16:31 42.2367 -112.3803 56° Northeast 280 322 27,000  Level Salt Lake Center
16:32 42.2581 -112.2825 74° East 273 314 27,000  Level Salt Lake Center
16:33 42.2892 -112.1883 66° East 275 316 27,000 -60 Level Salt Lake Center
16:34 42.3286 -112.0767 64° Northeast 274 315 26,900 -60 Descending Salt Lake Center
16:35 42.3594 -111.9814 66° East 277 319 26,900  Level Salt Lake Center
16:36 42.3922 -111.8889 64° Northeast 275 316 27,000  Climbing Salt Lake Center
16:37 42.4239 -111.7958 65° Northeast 274 315 27,000  Level Salt Lake Center
16:38 42.4539 -111.7033 66° East 270 311 27,000  Level Salt Lake Center
16:39 42.4853 -111.6117 65° Northeast 268 308 27,000  Level Salt Lake Center
16:40 42.5172 -111.5189 65° Northeast 272 313 27,000  Level Salt Lake Center
16:41 42.5550 -111.4067 65° Northeast 274 315 27,000 -60 Level Salt Lake Center
16:43 42.5864 -111.3128 66° East 272 313 26,900  Descending Salt Lake Center
16:44 42.6169 -111.2186 66° East 271 312 27,000  Climbing Salt Lake Center
16:45 42.6483 -111.1247 66° East 273 314 27,000  Level Salt Lake Center
16:46 42.6792 -111.0319 66° East 271 312 27,000  Level Salt Lake Center
16:47 42.7331 -110.9425 51° Northeast 283 326 27,000  Level Salt Lake Center
16:48 42.7867 -110.8750 43° Northeast 277 319 27,000  Level Salt Lake Center
16:49 42.8492 -110.7922 44° Northeast 279 321 27,000  Level Salt Lake Center
16:50 42.9028 -110.7228 43° Northeast 279 321 27,000  Level Salt Lake Center
16:51 42.9650 -110.6389 45° Northeast 283 326 27,000  Level Salt Lake Center
16:52 43.0194 -110.5678 44° Northeast 283 326 27,000 -60 Level Salt Lake Center
16:53 43.0842 -110.4847 43° Northeast 286 329 26,900  Descending Salt Lake Center
16:54 43.1389 -110.4097 45° Northeast 289 333 27,000  Climbing Salt Lake Center
16:55 43.2025 -110.3250 44° Northeast 288 331 27,000  Level Salt Lake Center
16:56 43.2594 -110.2481 45° Northeast 289 333 27,000  Level Salt Lake Center
16:57 43.3139 -110.1747 44° Northeast 288 331 27,000  Level Salt Lake Center
16:58 43.3772 -110.0886 45° Northeast 287 330 27,000  Level Salt Lake Center
16:59 43.4311 -110.0158 44° Northeast 285 328 27,000  Level Salt Lake Center
17:00 43.4928 -109.9325 44° Northeast 280 322 27,000  Level Salt Lake Center
17:01 43.5425 -109.8633 45° Northeast 278 320 27,000  Level Salt Lake Center
17:02 43.6039 -109.7822 44° Northeast 277 319 27,000  Level Salt Lake Center
17:03 43.6575 -109.7092 45° Northeast 281 323 27,000  Level Salt Lake Center
17:04 43.7194 -109.6247 45° Northeast 281 323 27,000  Level Salt Lake Center
17:05 43.7719 -109.5500 46° Northeast 282 325 27,000  Level Salt Lake Center
17:06 43.8347 -109.4669 44° Northeast 286 329 27,000  Level Salt Lake Center
17:07 43.8889 -109.3894 46° Northeast 281 323 27,000 -180 Level Salt Lake Center
17:08 43.9453 -109.3131 44° Northeast 283 326 26,700 -1,020 Descending Salt Lake Center
17:09 44.0044 -109.2300 45° Northeast 298 343 25,000 -1,800 Descending Salt Lake Center
17:10 44.0642 -109.1461 45° Northeast 305 351 23,100 -2,100 Descending Salt Lake Center
17:11 44.1303 -109.0533 45° Northeast 288 331 20,700 -1,920 Descending Salt Lake Center
17:12 44.1831 -108.9792 45° Northeast 276 318 19,200 -1,500 Descending Salt Lake Center
17:13 44.2367 -108.9050 45° Northeast 271 312 17,700 -1,440 Descending Salt Lake Center
17:14 44.2900 -108.8297 45° Northeast 273 314 16,300 -1,440 Descending Salt Lake Center
17:16 44.3375 -108.7583 47° Northeast 261 300 14,800 -1,500 Descending Salt Lake Center
17:17 44.2997 -108.7550 176° South 226 260 13,300 -1,500 Descending Salt Lake Center
17:18 44.3422 -108.8214 312° West 231 266 11,800 -1,680 Descending Salt Lake Center
17:19 44.4033 -108.8906 321° Northwest 234 269 9,900 -1,860 Descending Salt Lake Center